sensor_id;sensor_type;location;lat;lon;timestamp;P1;durP1;ratioP1;P2;durP2;ratioP2
43678;SDS011;29279;50.858;4.392;2023-05-13T00:01:13;13.35;;;7.22;;
43678;SDS011;29279;50.858;4.392;2023-05-13T00:03:39;9.38;;;6.45;;
43678;SDS011;29279;50.858;4.392;2023-05-13T00:06:05;14.05;;;6.55;;
43678;SDS011;29279;50.858;4.392;2023-05-13T00:08:31;10.02;;;7.30;;
43678;SDS011;29279;50.858;4.392;2023-05-13T00:10:57;10.77;;;6.60;;
43678;SDS011;29279;50.858;4.392;2023-05-13T00:13:22;8.75;;;7.10;;
43678;SDS011;29279;50.858;4.392;2023-05-13T00:15:48;9.43;;;7.45;;
43678;SDS011;29279;50.858;4.392;2023-05-13T00:18:13;11.73;;;7.38;;
43678;SDS011;29279;50.858;4.392;2023-05-13T00:20:42;17.27;;;7.22;;
43678;SDS011;29279;50.858;4.392;2023-05-13T00:23:08;23.50;;;7.95;;
43678;SDS011;29279;50.858;4.392;2023-05-13T00:25:35;13.82;;;7.47;;
43678;SDS011;29279;50.858;4.392;2023-05-13T00:28:01;12.38;;;7.65;;
43678;SDS011;29279;50.858;4.392;2023-05-13T00:30:27;12.27;;;7.57;;
43678;SDS011;29279;50.858;4.392;2023-05-13T00:32:55;14.18;;;8.48;;
43678;SDS011;29279;50.858;4.392;2023-05-13T00:35:21;16.60;;;8.73;;
43678;SDS011;29279;50.858;4.392;2023-05-13T00:37:46;16.45;;;8.35;;
43678;SDS011;29279;50.858;4.392;2023-05-13T00:40:19;10.57;;;7.93;;
43678;SDS011;29279;50.858;4.392;2023-05-13T00:42:46;15.25;;;9.07;;
43678;SDS011;29279;50.858;4.392;2023-05-13T00:45:12;12.35;;;9.13;;
43678;SDS011;29279;50.858;4.392;2023-05-13T00:47:38;17.02;;;10.20;;
43678;SDS011;29279;50.858;4.392;2023-05-13T00:50:05;12.27;;;10.30;;
43678;SDS011;29279;50.858;4.392;2023-05-13T00:52:32;16.63;;;10.85;;
43678;SDS011;29279;50.858;4.392;2023-05-13T00:54:58;16.05;;;11.80;;
43678;SDS011;29279;50.858;4.392;2023-05-13T00:57:24;13.70;;;11.02;;
43678;SDS011;29279;50.858;4.392;2023-05-13T00:59:50;19.38;;;11.23;;
43678;SDS011;29279;50.858;4.392;2023-05-13T01:02:22;15.93;;;11.65;;
43678;SDS011;29279;50.858;4.392;2023-05-13T01:05:11;13.13;;;10.50;;
43678;SDS011;29279;50.858;4.392;2023-05-13T01:13:26;18.55;;;10.93;;
43678;SDS011;29279;50.858;4.392;2023-05-13T01:15:57;14.40;;;11.02;;
43678;SDS011;29279;50.858;4.392;2023-05-13T01:18:30;16.75;;;11.75;;
43678;SDS011;29279;50.858;4.392;2023-05-13T01:21:01;18.00;;;11.88;;
43678;SDS011;29279;50.858;4.392;2023-05-13T01:23:29;19.60;;;12.38;;
43678;SDS011;29279;50.858;4.392;2023-05-13T01:25:55;17.20;;;12.48;;
43678;SDS011;29279;50.858;4.392;2023-05-13T01:28:20;21.60;;;12.57;;
43678;SDS011;29279;50.858;4.392;2023-05-13T01:30:46;16.80;;;12.43;;
43678;SDS011;29279;50.858;4.392;2023-05-13T01:33:13;24.20;;;13.25;;
43678;SDS011;29279;50.858;4.392;2023-05-13T01:35:40;17.00;;;11.93;;
43678;SDS011;29279;50.858;4.392;2023-05-13T01:38:06;16.88;;;11.38;;
43678;SDS011;29279;50.858;4.392;2023-05-13T01:40:31;20.30;;;12.27;;
43678;SDS011;29279;50.858;4.392;2023-05-13T01:42:58;17.83;;;12.35;;
43678;SDS011;29279;50.858;4.392;2023-05-13T01:45:26;17.13;;;12.88;;
43678;SDS011;29279;50.858;4.392;2023-05-13T01:47:53;18.05;;;12.48;;
43678;SDS011;29279;50.858;4.392;2023-05-13T01:50:18;15.48;;;12.63;;
43678;SDS011;29279;50.858;4.392;2023-05-13T01:52:44;24.73;;;14.02;;
43678;SDS011;29279;50.858;4.392;2023-05-13T01:55:10;20.90;;;13.57;;
43678;SDS011;29279;50.858;4.392;2023-05-13T01:57:36;19.17;;;13.88;;
43678;SDS011;29279;50.858;4.392;2023-05-13T02:00:02;26.83;;;13.68;;
43678;SDS011;29279;50.858;4.392;2023-05-13T02:02:29;23.30;;;12.82;;
43678;SDS011;29279;50.858;4.392;2023-05-13T02:04:54;17.10;;;13.50;;
43678;SDS011;29279;50.858;4.392;2023-05-13T02:07:20;19.08;;;14.82;;
43678;SDS011;29279;50.858;4.392;2023-05-13T02:09:46;20.83;;;13.52;;
43678;SDS011;29279;50.858;4.392;2023-05-13T02:12:11;18.60;;;13.75;;
43678;SDS011;29279;50.858;4.392;2023-05-13T02:14:37;20.23;;;14.13;;
43678;SDS011;29279;50.858;4.392;2023-05-13T02:17:03;15.52;;;13.23;;
43678;SDS011;29279;50.858;4.392;2023-05-13T02:19:29;17.10;;;13.73;;
43678;SDS011;29279;50.858;4.392;2023-05-13T02:21:54;17.00;;;12.65;;
43678;SDS011;29279;50.858;4.392;2023-05-13T02:24:20;18.85;;;13.70;;
43678;SDS011;29279;50.858;4.392;2023-05-13T02:26:46;18.20;;;13.93;;
43678;SDS011;29279;50.858;4.392;2023-05-13T02:29:12;20.50;;;15.30;;
43678;SDS011;29279;50.858;4.392;2023-05-13T02:31:38;18.42;;;14.25;;
43678;SDS011;29279;50.858;4.392;2023-05-13T02:34:05;21.05;;;14.90;;
43678;SDS011;29279;50.858;4.392;2023-05-13T02:36:33;20.10;;;15.55;;
43678;SDS011;29279;50.858;4.392;2023-05-13T02:38:59;25.15;;;16.60;;
43678;SDS011;29279;50.858;4.392;2023-05-13T02:41:25;24.77;;;15.48;;
43678;SDS011;29279;50.858;4.392;2023-05-13T02:43:50;21.33;;;15.18;;
43678;SDS011;29279;50.858;4.392;2023-05-13T02:46:16;44.25;;;17.35;;
43678;SDS011;29279;50.858;4.392;2023-05-13T02:48:42;21.20;;;16.83;;
43678;SDS011;29279;50.858;4.392;2023-05-13T02:51:07;26.50;;;16.80;;
43678;SDS011;29279;50.858;4.392;2023-05-13T02:53:33;20.77;;;15.65;;
43678;SDS011;29279;50.858;4.392;2023-05-13T02:55:59;25.08;;;15.10;;
43678;SDS011;29279;50.858;4.392;2023-05-13T02:58:25;25.95;;;15.35;;
43678;SDS011;29279;50.858;4.392;2023-05-13T03:00:50;25.02;;;14.82;;
43678;SDS011;29279;50.858;4.392;2023-05-13T03:03:16;24.50;;;16.00;;
43678;SDS011;29279;50.858;4.392;2023-05-13T03:05:42;18.08;;;14.60;;
43678;SDS011;29279;50.858;4.392;2023-05-13T03:08:07;27.33;;;15.68;;
43678;SDS011;29279;50.858;4.392;2023-05-13T03:10:33;20.27;;;14.30;;
43678;SDS011;29279;50.858;4.392;2023-05-13T03:12:59;22.40;;;14.70;;
43678;SDS011;29279;50.858;4.392;2023-05-13T03:15:24;19.73;;;16.08;;
43678;SDS011;29279;50.858;4.392;2023-05-13T03:17:50;20.33;;;15.65;;
43678;SDS011;29279;50.858;4.392;2023-05-13T03:20:16;23.80;;;16.13;;
43678;SDS011;29279;50.858;4.392;2023-05-13T03:22:42;21.70;;;14.50;;
43678;SDS011;29279;50.858;4.392;2023-05-13T03:25:08;24.50;;;15.25;;
43678;SDS011;29279;50.858;4.392;2023-05-13T03:27:34;20.40;;;15.18;;
43678;SDS011;29279;50.858;4.392;2023-05-13T03:30:00;25.75;;;15.30;;
43678;SDS011;29279;50.858;4.392;2023-05-13T03:32:26;21.85;;;14.32;;
43678;SDS011;29279;50.858;4.392;2023-05-13T03:34:55;21.88;;;14.90;;
43678;SDS011;29279;50.858;4.392;2023-05-13T03:37:22;20.40;;;15.57;;
43678;SDS011;29279;50.858;4.392;2023-05-13T03:39:48;25.33;;;15.85;;
43678;SDS011;29279;50.858;4.392;2023-05-13T03:42:14;18.25;;;15.07;;
43678;SDS011;29279;50.858;4.392;2023-05-13T03:44:40;22.92;;;15.43;;
43678;SDS011;29279;50.858;4.392;2023-05-13T03:47:05;24.92;;;15.75;;
43678;SDS011;29279;50.858;4.392;2023-05-13T03:49:31;21.10;;;14.88;;
43678;SDS011;29279;50.858;4.392;2023-05-13T03:51:57;27.23;;;16.77;;
43678;SDS011;29279;50.858;4.392;2023-05-13T03:54:22;21.70;;;15.48;;
43678;SDS011;29279;50.858;4.392;2023-05-13T03:56:48;21.00;;;15.05;;
43678;SDS011;29279;50.858;4.392;2023-05-13T03:59:14;21.75;;;15.48;;
43678;SDS011;29279;50.858;4.392;2023-05-13T04:01:39;20.02;;;15.23;;
43678;SDS011;29279;50.858;4.392;2023-05-13T04:04:05;22.48;;;15.43;;
43678;SDS011;29279;50.858;4.392;2023-05-13T04:06:31;26.98;;;15.75;;
43678;SDS011;29279;50.858;4.392;2023-05-13T04:08:56;29.05;;;16.33;;
43678;SDS011;29279;50.858;4.392;2023-05-13T04:11:22;23.80;;;15.60;;
43678;SDS011;29279;50.858;4.392;2023-05-13T04:13:48;27.50;;;16.05;;
43678;SDS011;29279;50.858;4.392;2023-05-13T04:16:13;29.23;;;15.55;;
43678;SDS011;29279;50.858;4.392;2023-05-13T04:18:39;22.35;;;15.65;;
43678;SDS011;29279;50.858;4.392;2023-05-13T04:21:05;17.95;;;14.38;;
43678;SDS011;29279;50.858;4.392;2023-05-13T04:23:32;25.13;;;15.50;;
43678;SDS011;29279;50.858;4.392;2023-05-13T04:25:57;28.63;;;15.05;;
43678;SDS011;29279;50.858;4.392;2023-05-13T04:28:23;20.35;;;13.95;;
43678;SDS011;29279;50.858;4.392;2023-05-13T04:30:49;24.42;;;14.63;;
43678;SDS011;29279;50.858;4.392;2023-05-13T04:33:14;21.52;;;14.57;;
43678;SDS011;29279;50.858;4.392;2023-05-13T04:35:40;17.38;;;14.07;;
43678;SDS011;29279;50.858;4.392;2023-05-13T04:38:06;18.88;;;14.15;;
43678;SDS011;29279;50.858;4.392;2023-05-13T04:40:33;20.38;;;14.07;;
43678;SDS011;29279;50.858;4.392;2023-05-13T04:42:59;20.15;;;14.10;;
43678;SDS011;29279;50.858;4.392;2023-05-13T04:45:24;22.13;;;13.18;;
43678;SDS011;29279;50.858;4.392;2023-05-13T04:47:50;22.02;;;13.15;;
43678;SDS011;29279;50.858;4.392;2023-05-13T04:50:16;17.23;;;12.65;;
43678;SDS011;29279;50.858;4.392;2023-05-13T04:52:42;21.63;;;13.32;;
43678;SDS011;29279;50.858;4.392;2023-05-13T04:55:08;20.98;;;12.38;;
43678;SDS011;29279;50.858;4.392;2023-05-13T04:57:34;24.65;;;12.68;;
43678;SDS011;29279;50.858;4.392;2023-05-13T05:00:00;21.38;;;13.57;;
43678;SDS011;29279;50.858;4.392;2023-05-13T05:02:28;21.13;;;13.25;;
43678;SDS011;29279;50.858;4.392;2023-05-13T05:04:56;21.15;;;12.13;;
43678;SDS011;29279;50.858;4.392;2023-05-13T05:07:22;25.05;;;12.18;;
43678;SDS011;29279;50.858;4.392;2023-05-13T05:09:48;17.85;;;11.38;;
43678;SDS011;29279;50.858;4.392;2023-05-13T05:12:14;23.33;;;11.63;;
43678;SDS011;29279;50.858;4.392;2023-05-13T05:14:39;22.63;;;11.27;;
43678;SDS011;29279;50.858;4.392;2023-05-13T05:17:06;14.70;;;11.15;;
43678;SDS011;29279;50.858;4.392;2023-05-13T05:19:32;21.85;;;11.52;;
43678;SDS011;29279;50.858;4.392;2023-05-13T05:21:57;20.58;;;11.02;;
43678;SDS011;29279;50.858;4.392;2023-05-13T05:24:23;22.10;;;10.77;;
43678;SDS011;29279;50.858;4.392;2023-05-13T05:26:48;13.50;;;9.57;;
43678;SDS011;29279;50.858;4.392;2023-05-13T05:29:14;14.25;;;9.82;;
43678;SDS011;29279;50.858;4.392;2023-05-13T05:31:40;19.35;;;10.40;;
43678;SDS011;29279;50.858;4.392;2023-05-13T05:34:06;13.57;;;9.38;;
43678;SDS011;29279;50.858;4.392;2023-05-13T05:36:31;16.20;;;9.55;;
43678;SDS011;29279;50.858;4.392;2023-05-13T05:38:57;16.10;;;10.32;;
43678;SDS011;29279;50.858;4.392;2023-05-13T05:41:23;11.80;;;9.50;;
43678;SDS011;29279;50.858;4.392;2023-05-13T05:43:49;17.67;;;8.65;;
43678;SDS011;29279;50.858;4.392;2023-05-13T05:46:15;14.90;;;8.65;;
43678;SDS011;29279;50.858;4.392;2023-05-13T05:48:40;19.85;;;9.63;;
43678;SDS011;29279;50.858;4.392;2023-05-13T05:51:06;14.20;;;8.55;;
43678;SDS011;29279;50.858;4.392;2023-05-13T05:53:33;15.20;;;9.30;;
43678;SDS011;29279;50.858;4.392;2023-05-13T05:55:59;16.02;;;8.30;;
43678;SDS011;29279;50.858;4.392;2023-05-13T05:58:25;14.80;;;8.82;;
43678;SDS011;29279;50.858;4.392;2023-05-13T06:00:51;16.67;;;8.95;;
43678;SDS011;29279;50.858;4.392;2023-05-13T06:03:18;12.73;;;9.32;;
43678;SDS011;29279;50.858;4.392;2023-05-13T06:05:45;17.52;;;7.60;;
43678;SDS011;29279;50.858;4.392;2023-05-13T06:08:10;14.20;;;8.93;;
43678;SDS011;29279;50.858;4.392;2023-05-13T06:10:36;11.48;;;7.68;;
43678;SDS011;29279;50.858;4.392;2023-05-13T06:13:02;13.45;;;9.50;;
43678;SDS011;29279;50.858;4.392;2023-05-13T06:15:28;13.85;;;8.43;;
43678;SDS011;29279;50.858;4.392;2023-05-13T06:17:54;15.38;;;8.38;;
43678;SDS011;29279;50.858;4.392;2023-05-13T06:20:20;13.98;;;8.35;;
43678;SDS011;29279;50.858;4.392;2023-05-13T06:22:46;17.45;;;7.95;;
43678;SDS011;29279;50.858;4.392;2023-05-13T06:25:12;20.15;;;9.23;;
43678;SDS011;29279;50.858;4.392;2023-05-13T06:27:38;11.48;;;8.13;;
43678;SDS011;29279;50.858;4.392;2023-05-13T06:30:04;15.07;;;8.25;;
43678;SDS011;29279;50.858;4.392;2023-05-13T06:32:30;15.60;;;8.23;;
43678;SDS011;29279;50.858;4.392;2023-05-13T06:34:56;18.33;;;8.13;;
43678;SDS011;29279;50.858;4.392;2023-05-13T06:37:22;12.10;;;8.15;;
43678;SDS011;29279;50.858;4.392;2023-05-13T06:39:48;16.20;;;8.23;;
43678;SDS011;29279;50.858;4.392;2023-05-13T06:42:14;15.35;;;8.48;;
43678;SDS011;29279;50.858;4.392;2023-05-13T06:44:39;17.48;;;8.57;;
43678;SDS011;29279;50.858;4.392;2023-05-13T06:47:05;13.90;;;8.40;;
43678;SDS011;29279;50.858;4.392;2023-05-13T06:49:32;19.25;;;8.20;;
43678;SDS011;29279;50.858;4.392;2023-05-13T06:51:58;10.00;;;7.63;;
43678;SDS011;29279;50.858;4.392;2023-05-13T06:54:23;15.07;;;8.05;;
43678;SDS011;29279;50.858;4.392;2023-05-13T06:56:51;16.73;;;8.25;;
43678;SDS011;29279;50.858;4.392;2023-05-13T06:59:18;18.02;;;7.43;;
43678;SDS011;29279;50.858;4.392;2023-05-13T07:01:48;13.85;;;7.93;;
43678;SDS011;29279;50.858;4.392;2023-05-13T07:04:14;10.50;;;7.30;;
43678;SDS011;29279;50.858;4.392;2023-05-13T07:06:40;14.98;;;8.43;;
43678;SDS011;29279;50.858;4.392;2023-05-13T07:09:06;12.95;;;7.93;;
43678;SDS011;29279;50.858;4.392;2023-05-13T07:11:33;12.13;;;8.07;;
43678;SDS011;29279;50.858;4.392;2023-05-13T07:14:00;13.50;;;7.80;;
43678;SDS011;29279;50.858;4.392;2023-05-13T07:16:25;14.20;;;7.53;;
43678;SDS011;29279;50.858;4.392;2023-05-13T07:18:51;13.73;;;7.07;;
43678;SDS011;29279;50.858;4.392;2023-05-13T07:21:18;9.85;;;6.88;;
43678;SDS011;29279;50.858;4.392;2023-05-13T07:23:44;13.57;;;6.97;;
43678;SDS011;29279;50.858;4.392;2023-05-13T07:26:10;14.38;;;7.65;;
43678;SDS011;29279;50.858;4.392;2023-05-13T07:28:37;15.55;;;7.47;;
43678;SDS011;29279;50.858;4.392;2023-05-13T07:31:03;15.13;;;8.25;;
43678;SDS011;29279;50.858;4.392;2023-05-13T07:33:29;16.10;;;7.82;;
43678;SDS011;29279;50.858;4.392;2023-05-13T07:35:55;12.50;;;7.18;;
43678;SDS011;29279;50.858;4.392;2023-05-13T07:38:21;13.48;;;7.25;;
43678;SDS011;29279;50.858;4.392;2023-05-13T07:40:47;12.15;;;6.47;;
43678;SDS011;29279;50.858;4.392;2023-05-13T07:43:13;13.88;;;7.75;;
43678;SDS011;29279;50.858;4.392;2023-05-13T07:45:41;10.88;;;7.80;;
43678;SDS011;29279;50.858;4.392;2023-05-13T07:48:07;19.55;;;7.25;;
43678;SDS011;29279;50.858;4.392;2023-05-13T07:50:34;13.15;;;6.82;;
43678;SDS011;29279;50.858;4.392;2023-05-13T07:53:01;18.80;;;8.13;;
43678;SDS011;29279;50.858;4.392;2023-05-13T07:55:27;13.27;;;7.68;;
43678;SDS011;29279;50.858;4.392;2023-05-13T07:57:52;16.38;;;7.47;;
43678;SDS011;29279;50.858;4.392;2023-05-13T08:00:18;13.27;;;6.93;;
43678;SDS011;29279;50.858;4.392;2023-05-13T08:02:44;14.95;;;7.03;;
43678;SDS011;29279;50.858;4.392;2023-05-13T08:05:10;15.13;;;7.40;;
43678;SDS011;29279;50.858;4.392;2023-05-13T08:07:36;17.08;;;8.30;;
43678;SDS011;29279;50.858;4.392;2023-05-13T08:10:02;11.75;;;7.05;;
43678;SDS011;29279;50.858;4.392;2023-05-13T08:12:28;11.73;;;6.65;;
43678;SDS011;29279;50.858;4.392;2023-05-13T08:14:53;10.23;;;7.15;;
43678;SDS011;29279;50.858;4.392;2023-05-13T08:17:19;9.07;;;6.72;;
43678;SDS011;29279;50.858;4.392;2023-05-13T08:19:45;13.65;;;7.50;;
43678;SDS011;29279;50.858;4.392;2023-05-13T08:22:11;14.80;;;6.80;;
43678;SDS011;29279;50.858;4.392;2023-05-13T08:24:37;10.10;;;7.15;;
43678;SDS011;29279;50.858;4.392;2023-05-13T08:27:05;11.35;;;7.35;;
43678;SDS011;29279;50.858;4.392;2023-05-13T08:29:30;14.32;;;7.05;;
43678;SDS011;29279;50.858;4.392;2023-05-13T08:31:56;15.15;;;7.25;;
43678;SDS011;29279;50.858;4.392;2023-05-13T08:34:22;15.10;;;7.03;;
43678;SDS011;29279;50.858;4.392;2023-05-13T08:36:47;14.52;;;6.57;;
43678;SDS011;29279;50.858;4.392;2023-05-13T08:39:13;14.55;;;6.35;;
43678;SDS011;29279;50.858;4.392;2023-05-13T08:41:39;11.15;;;6.75;;
43678;SDS011;29279;50.858;4.392;2023-05-13T08:44:06;10.50;;;6.70;;
43678;SDS011;29279;50.858;4.392;2023-05-13T08:46:36;15.55;;;6.38;;
43678;SDS011;29279;50.858;4.392;2023-05-13T08:49:04;18.13;;;7.00;;
43678;SDS011;29279;50.858;4.392;2023-05-13T08:51:31;11.70;;;6.38;;
43678;SDS011;29279;50.858;4.392;2023-05-13T08:53:57;14.27;;;7.40;;
43678;SDS011;29279;50.858;4.392;2023-05-13T08:56:25;11.93;;;6.60;;
43678;SDS011;29279;50.858;4.392;2023-05-13T08:58:53;9.05;;;6.55;;
43678;SDS011;29279;50.858;4.392;2023-05-13T09:01:19;13.32;;;6.90;;
43678;SDS011;29279;50.858;4.392;2023-05-13T09:04:07;9.35;;;6.03;;
43678;SDS011;29279;50.858;4.392;2023-05-13T09:06:32;14.55;;;7.13;;
43678;SDS011;29279;50.858;4.392;2023-05-13T09:08:58;13.45;;;5.88;;
43678;SDS011;29279;50.858;4.392;2023-05-13T09:11:24;14.35;;;6.60;;
43678;SDS011;29279;50.858;4.392;2023-05-13T09:14:02;9.65;;;6.90;;
43678;SDS011;29279;50.858;4.392;2023-05-13T09:16:31;10.82;;;6.47;;
43678;SDS011;29279;50.858;4.392;2023-05-13T09:19:02;10.45;;;6.50;;
43678;SDS011;29279;50.858;4.392;2023-05-13T09:21:29;16.10;;;7.05;;
43678;SDS011;29279;50.858;4.392;2023-05-13T09:24:12;16.02;;;6.93;;
43678;SDS011;29279;50.858;4.392;2023-05-13T09:26:43;9.63;;;5.90;;
43678;SDS011;29279;50.858;4.392;2023-05-13T09:29:27;13.80;;;6.55;;
43678;SDS011;29279;50.858;4.392;2023-05-13T09:31:54;12.13;;;5.85;;
43678;SDS011;29279;50.858;4.392;2023-05-13T09:34:25;14.57;;;6.05;;
43678;SDS011;29279;50.858;4.392;2023-05-13T09:36:57;9.23;;;5.90;;
43678;SDS011;29279;50.858;4.392;2023-05-13T09:39:25;11.68;;;6.65;;
43678;SDS011;29279;50.858;4.392;2023-05-13T09:41:51;12.55;;;6.13;;
43678;SDS011;29279;50.858;4.392;2023-05-13T09:44:20;14.80;;;6.07;;
43678;SDS011;29279;50.858;4.392;2023-05-13T09:46:46;12.35;;;7.10;;
43678;SDS011;29279;50.858;4.392;2023-05-13T09:49:13;9.95;;;6.40;;
43678;SDS011;29279;50.858;4.392;2023-05-13T09:51:40;20.63;;;6.45;;
43678;SDS011;29279;50.858;4.392;2023-05-13T09:54:10;10.23;;;6.35;;
43678;SDS011;29279;50.858;4.392;2023-05-13T09:56:35;10.40;;;6.10;;
43678;SDS011;29279;50.858;4.392;2023-05-13T09:59:02;11.15;;;6.38;;
43678;SDS011;29279;50.858;4.392;2023-05-13T10:01:28;10.15;;;6.70;;
43678;SDS011;29279;50.858;4.392;2023-05-13T10:03:54;13.10;;;6.63;;
43678;SDS011;29279;50.858;4.392;2023-05-13T10:06:23;14.65;;;6.15;;
43678;SDS011;29279;50.858;4.392;2023-05-13T10:08:50;8.48;;;5.60;;
43678;SDS011;29279;50.858;4.392;2023-05-13T10:11:18;8.88;;;6.32;;
43678;SDS011;29279;50.858;4.392;2023-05-13T10:13:45;9.05;;;5.82;;
43678;SDS011;29279;50.858;4.392;2023-05-13T10:16:16;12.65;;;5.63;;
43678;SDS011;29279;50.858;4.392;2023-05-13T10:18:43;10.63;;;5.35;;
43678;SDS011;29279;50.858;4.392;2023-05-13T10:21:11;10.02;;;5.45;;
43678;SDS011;29279;50.858;4.392;2023-05-13T10:23:37;15.82;;;6.10;;
43678;SDS011;29279;50.858;4.392;2023-05-13T10:26:03;9.25;;;6.25;;
43678;SDS011;29279;50.858;4.392;2023-05-13T10:28:31;8.32;;;5.43;;
43678;SDS011;29279;50.858;4.392;2023-05-13T10:30:58;12.93;;;5.88;;
43678;SDS011;29279;50.858;4.392;2023-05-13T10:33:24;12.80;;;5.30;;
43678;SDS011;29279;50.858;4.392;2023-05-13T10:42:07;14.82;;;6.65;;
43678;SDS011;29279;50.858;4.392;2023-05-13T10:44:55;7.82;;;5.63;;
43678;SDS011;29279;50.858;4.392;2023-05-13T10:47:22;12.50;;;5.68;;
43678;SDS011;29279;50.858;4.392;2023-05-13T10:49:51;11.15;;;4.95;;
43678;SDS011;29279;50.858;4.392;2023-05-13T10:52:17;14.00;;;6.10;;
43678;SDS011;29279;50.858;4.392;2023-05-13T10:54:45;9.25;;;5.18;;
43678;SDS011;29279;50.858;4.392;2023-05-13T10:57:29;10.85;;;5.18;;
43678;SDS011;29279;50.858;4.392;2023-05-13T11:00:11;11.23;;;5.35;;
43678;SDS011;29279;50.858;4.392;2023-05-13T11:02:40;12.88;;;5.80;;
43678;SDS011;29279;50.858;4.392;2023-05-13T11:05:06;34.17;;;5.65;;
43678;SDS011;29279;50.858;4.392;2023-05-13T11:07:36;11.20;;;6.00;;
43678;SDS011;29279;50.858;4.392;2023-05-13T11:10:03;9.93;;;5.30;;
43678;SDS011;29279;50.858;4.392;2023-05-13T11:13:07;19.13;;;5.28;;
43678;SDS011;29279;50.858;4.392;2023-05-13T11:15:49;11.80;;;5.93;;
43678;SDS011;29279;50.858;4.392;2023-05-13T11:18:16;10.63;;;4.55;;
43678;SDS011;29279;50.858;4.392;2023-05-13T11:21:01;15.48;;;5.25;;
43678;SDS011;29279;50.858;4.392;2023-05-13T11:23:31;8.05;;;6.07;;
43678;SDS011;29279;50.858;4.392;2023-05-13T11:26:08;13.63;;;6.63;;
43678;SDS011;29279;50.858;4.392;2023-05-13T11:31:18;12.90;;;6.15;;
43678;SDS011;29279;50.858;4.392;2023-05-13T11:36:29;10.88;;;6.90;;
43678;SDS011;29279;50.858;4.392;2023-05-13T11:39:16;10.35;;;6.30;;
43678;SDS011;29279;50.858;4.392;2023-05-13T11:41:46;12.02;;;7.53;;
43678;SDS011;29279;50.858;4.392;2023-05-13T11:44:19;13.18;;;7.97;;
43678;SDS011;29279;50.858;4.392;2023-05-13T11:46:50;10.32;;;7.47;;
43678;SDS011;29279;50.858;4.392;2023-05-13T11:52:06;12.18;;;8.00;;
43678;SDS011;29279;50.858;4.392;2023-05-13T11:54:38;12.90;;;7.05;;
43678;SDS011;29279;50.858;4.392;2023-05-13T11:57:27;11.75;;;6.30;;
43678;SDS011;29279;50.858;4.392;2023-05-13T11:59:59;13.02;;;6.38;;
43678;SDS011;29279;50.858;4.392;2023-05-13T12:02:29;13.60;;;5.78;;
43678;SDS011;29279;50.858;4.392;2023-05-13T12:05:01;9.52;;;6.18;;
43678;SDS011;29279;50.858;4.392;2023-05-13T12:07:30;13.25;;;5.80;;
43678;SDS011;29279;50.858;4.392;2023-05-13T12:09:57;12.30;;;4.57;;
43678;SDS011;29279;50.858;4.392;2023-05-13T12:12:25;6.50;;;4.18;;
43678;SDS011;29279;50.858;4.392;2023-05-13T12:14:52;6.50;;;3.55;;
43678;SDS011;29279;50.858;4.392;2023-05-13T12:17:19;10.57;;;4.10;;
43678;SDS011;29279;50.858;4.392;2023-05-13T12:28:06;10.75;;;4.00;;
43678;SDS011;29279;50.858;4.392;2023-05-13T12:30:41;6.10;;;3.53;;
43678;SDS011;29279;50.858;4.392;2023-05-13T12:33:28;14.30;;;3.42;;
43678;SDS011;29279;50.858;4.392;2023-05-13T12:38:38;6.97;;;3.03;;
43678;SDS011;29279;50.858;4.392;2023-05-13T12:41:16;7.00;;;3.40;;
43678;SDS011;29279;50.858;4.392;2023-05-13T12:43:42;8.73;;;3.30;;
43678;SDS011;29279;50.858;4.392;2023-05-13T12:46:08;8.00;;;2.45;;
43678;SDS011;29279;50.858;4.392;2023-05-13T12:48:34;7.80;;;2.72;;
43678;SDS011;29279;50.858;4.392;2023-05-13T12:50:59;8.80;;;2.50;;
43678;SDS011;29279;50.858;4.392;2023-05-13T12:53:25;4.43;;;2.80;;
43678;SDS011;29279;50.858;4.392;2023-05-13T12:55:51;10.45;;;3.22;;
43678;SDS011;29279;50.858;4.392;2023-05-13T12:58:16;6.93;;;2.90;;
43678;SDS011;29279;50.858;4.392;2023-05-13T13:00:42;6.10;;;2.75;;
43678;SDS011;29279;50.858;4.392;2023-05-13T13:03:09;9.43;;;2.80;;
43678;SDS011;29279;50.858;4.392;2023-05-13T13:05:35;12.52;;;4.25;;
43678;SDS011;29279;50.858;4.392;2023-05-13T13:08:01;15.00;;;2.97;;
43678;SDS011;29279;50.858;4.392;2023-05-13T13:10:29;8.45;;;3.50;;
43678;SDS011;29279;50.858;4.392;2023-05-13T13:12:55;8.20;;;2.65;;
43678;SDS011;29279;50.858;4.392;2023-05-13T13:15:21;5.53;;;3.30;;
43678;SDS011;29279;50.858;4.392;2023-05-13T13:17:46;8.52;;;3.80;;
43678;SDS011;29279;50.858;4.392;2023-05-13T13:20:12;10.30;;;3.42;;
43678;SDS011;29279;50.858;4.392;2023-05-13T13:22:38;9.75;;;3.20;;
43678;SDS011;29279;50.858;4.392;2023-05-13T13:25:04;6.97;;;2.95;;
43678;SDS011;29279;50.858;4.392;2023-05-13T13:27:31;6.00;;;2.95;;
43678;SDS011;29279;50.858;4.392;2023-05-13T13:29:57;8.50;;;3.75;;
43678;SDS011;29279;50.858;4.392;2023-05-13T13:32:23;7.22;;;2.83;;
43678;SDS011;29279;50.858;4.392;2023-05-13T13:34:48;12.90;;;3.17;;
43678;SDS011;29279;50.858;4.392;2023-05-13T13:37:14;9.57;;;3.30;;
43678;SDS011;29279;50.858;4.392;2023-05-13T13:39:40;10.73;;;3.45;;
43678;SDS011;29279;50.858;4.392;2023-05-13T13:42:06;8.27;;;3.20;;
43678;SDS011;29279;50.858;4.392;2023-05-13T13:44:32;9.60;;;2.95;;
43678;SDS011;29279;50.858;4.392;2023-05-13T13:47:00;7.55;;;3.13;;
43678;SDS011;29279;50.858;4.392;2023-05-13T13:49:26;6.22;;;2.72;;
43678;SDS011;29279;50.858;4.392;2023-05-13T13:51:52;6.40;;;2.70;;
43678;SDS011;29279;50.858;4.392;2023-05-13T13:54:17;13.80;;;3.00;;
43678;SDS011;29279;50.858;4.392;2023-05-13T13:56:45;3.58;;;2.60;;
43678;SDS011;29279;50.858;4.392;2023-05-13T13:59:11;7.20;;;2.83;;
43678;SDS011;29279;50.858;4.392;2023-05-13T14:01:37;7.47;;;2.42;;
43678;SDS011;29279;50.858;4.392;2023-05-13T14:04:10;9.05;;;3.13;;
43678;SDS011;29279;50.858;4.392;2023-05-13T14:06:37;10.82;;;2.95;;
43678;SDS011;29279;50.858;4.392;2023-05-13T14:09:04;9.57;;;2.72;;
43678;SDS011;29279;50.858;4.392;2023-05-13T14:11:30;5.03;;;2.90;;
43678;SDS011;29279;50.858;4.392;2023-05-13T14:13:56;7.90;;;2.97;;
43678;SDS011;29279;50.858;4.392;2023-05-13T14:16:21;4.00;;;2.33;;
43678;SDS011;29279;50.858;4.392;2023-05-13T14:18:47;8.73;;;2.90;;
43678;SDS011;29279;50.858;4.392;2023-05-13T14:21:13;10.80;;;3.15;;
43678;SDS011;29279;50.858;4.392;2023-05-13T14:23:38;8.48;;;2.55;;
43678;SDS011;29279;50.858;4.392;2023-05-13T14:26:09;7.20;;;3.50;;
43678;SDS011;29279;50.858;4.392;2023-05-13T14:28:37;7.18;;;3.30;;
43678;SDS011;29279;50.858;4.392;2023-05-13T14:31:03;5.63;;;2.33;;
43678;SDS011;29279;50.858;4.392;2023-05-13T14:33:29;6.15;;;2.95;;
43678;SDS011;29279;50.858;4.392;2023-05-13T14:35:55;7.97;;;2.83;;
43678;SDS011;29279;50.858;4.392;2023-05-13T14:38:21;6.55;;;2.45;;
43678;SDS011;29279;50.858;4.392;2023-05-13T14:40:46;9.32;;;2.10;;
43678;SDS011;29279;50.858;4.392;2023-05-13T14:43:12;7.70;;;2.35;;
43678;SDS011;29279;50.858;4.392;2023-05-13T14:45:38;7.13;;;2.95;;
43678;SDS011;29279;50.858;4.392;2023-05-13T14:48:03;6.15;;;2.42;;
43678;SDS011;29279;50.858;4.392;2023-05-13T14:50:29;9.77;;;2.58;;
43678;SDS011;29279;50.858;4.392;2023-05-13T14:52:56;5.80;;;2.50;;
43678;SDS011;29279;50.858;4.392;2023-05-13T14:55:22;13.32;;;4.20;;
43678;SDS011;29279;50.858;4.392;2023-05-13T14:57:48;17.38;;;9.27;;
43678;SDS011;29279;50.858;4.392;2023-05-13T15:00:13;36.95;;;9.65;;
43678;SDS011;29279;50.858;4.392;2023-05-13T15:02:40;18.55;;;9.10;;
43678;SDS011;29279;50.858;4.392;2023-05-13T15:05:05;19.55;;;9.23;;